CSW4 weather

Public forecast

Using degrees Celsius for public forecast. Weather courtesy of forecast.io.

Closest aviation weather report (METAR) to Bracebridge (Stone Wall Farm) Airport

Closest report is Muskoka Airport, 4.9 nm (9.1 km) W. Retrieved 2020/08/13 16:00 UTC (30 minutes ago):

CYQA 131600Z AUTO 05003KT 360V160 9SM CLR 28/15 A3017 RMK SLP218 DENSITY ALT 2300FT

Closest aviation forecast (TAF) to Bracebridge (Stone Wall Farm) Airport

Closest forecast is Muskoka Airport, 4.9 nm (9.1 km) W. Retrieved 2020/08/13 14:39 UTC (2 hours ago):

TAF CYQA 131338Z 1314/1402 VRB03KT P6SM SKC FM131800 12008KT P6SM BKN180 RMK FCST BASED ON AUTO OBS NXT FCST BY 132000Z